sensor_id;sensor_type;location;lat;lon;timestamp;temperature;humidity
18083;DHT22;9168;51.194;6.840;2022-07-18T00:01:02;17.90;99.90
18083;DHT22;9168;51.194;6.840;2022-07-18T00:03:29;17.90;99.90
18083;DHT22;9168;51.194;6.840;2022-07-18T00:05:57;17.90;99.90
18083;DHT22;9168;51.194;6.840;2022-07-18T00:08:24;17.90;99.90
18083;DHT22;9168;51.194;6.840;2022-07-18T00:10:51;17.80;99.90
18083;DHT22;9168;51.194;6.840;2022-07-18T00:13:17;17.80;99.90
18083;DHT22;9168;51.194;6.840;2022-07-18T00:15:44;17.80;99.90
18083;DHT22;9168;51.194;6.840;2022-07-18T00:18:11;17.80;99.90
18083;DHT22;9168;51.194;6.840;2022-07-18T00:20:38;17.80;99.90
18083;DHT22;9168;51.194;6.840;2022-07-18T00:23:09;17.70;99.90
18083;DHT22;9168;51.194;6.840;2022-07-18T00:25:36;17.70;99.90
18083;DHT22;9168;51.194;6.840;2022-07-18T00:28:03;17.60;99.90
18083;DHT22;9168;51.194;6.840;2022-07-18T00:30:30;17.60;99.90
18083;DHT22;9168;51.194;6.840;2022-07-18T00:32:57;17.60;99.90
18083;DHT22;9168;51.194;6.840;2022-07-18T00:35:24;17.60;99.90
18083;DHT22;9168;51.194;6.840;2022-07-18T00:37:51;17.50;99.90
18083;DHT22;9168;51.194;6.840;2022-07-18T00:40:19;17.50;99.90
18083;DHT22;9168;51.194;6.840;2022-07-18T00:42:46;17.50;99.90
18083;DHT22;9168;51.194;6.840;2022-07-18T00:45:13;17.50;99.90
18083;DHT22;9168;51.194;6.840;2022-07-18T00:47:40;17.50;99.90
18083;DHT22;9168;51.194;6.840;2022-07-18T00:50:08;17.50;99.90
18083;DHT22;9168;51.194;6.840;2022-07-18T00:52:35;17.50;99.90
18083;DHT22;9168;51.194;6.840;2022-07-18T00:55:03;17.40;99.90
18083;DHT22;9168;51.194;6.840;2022-07-18T00:57:32;17.40;99.90
18083;DHT22;9168;51.194;6.840;2022-07-18T00:59:59;17.40;99.90
18083;DHT22;9168;51.194;6.840;2022-07-18T01:02:43;17.40;99.90
18083;DHT22;9168;51.194;6.840;2022-07-18T01:05:10;17.40;99.90
18083;DHT22;9168;51.194;6.840;2022-07-18T01:07:37;17.40;99.90
18083;DHT22;9168;51.194;6.840;2022-07-18T01:10:05;17.30;99.90
18083;DHT22;9168;51.194;6.840;2022-07-18T01:12:33;17.30;99.90
18083;DHT22;9168;51.194;6.840;2022-07-18T01:15:00;17.30;99.90
18083;DHT22;9168;51.194;6.840;2022-07-18T01:17:27;17.20;99.90
18083;DHT22;9168;51.194;6.840;2022-07-18T01:19:54;17.20;99.90
18083;DHT22;9168;51.194;6.840;2022-07-18T01:22:23;17.20;99.90
18083;DHT22;9168;51.194;6.840;2022-07-18T01:24:49;17.10;99.90
18083;DHT22;9168;51.194;6.840;2022-07-18T01:27:18;17.10;99.90
18083;DHT22;9168;51.194;6.840;2022-07-18T01:29:45;17.10;99.90
18083;DHT22;9168;51.194;6.840;2022-07-18T01:32:14;17.00;99.90
18083;DHT22;9168;51.194;6.840;2022-07-18T01:34:41;16.90;99.90
18083;DHT22;9168;51.194;6.840;2022-07-18T01:37:11;16.90;99.90
18083;DHT22;9168;51.194;6.840;2022-07-18T01:39:40;16.90;99.90
18083;DHT22;9168;51.194;6.840;2022-07-18T01:42:08;16.90;99.90
18083;DHT22;9168;51.194;6.840;2022-07-18T01:44:36;16.80;99.90
18083;DHT22;9168;51.194;6.840;2022-07-18T01:47:06;16.80;99.90
18083;DHT22;9168;51.194;6.840;2022-07-18T01:49:33;16.80;99.90
18083;DHT22;9168;51.194;6.840;2022-07-18T01:52:01;16.70;99.90
18083;DHT22;9168;51.194;6.840;2022-07-18T01:54:30;16.70;99.90
18083;DHT22;9168;51.194;6.840;2022-07-18T01:56:59;16.70;99.90
18083;DHT22;9168;51.194;6.840;2022-07-18T01:59:26;16.70;99.90
18083;DHT22;9168;51.194;6.840;2022-07-18T02:01:53;16.70;99.90
18083;DHT22;9168;51.194;6.840;2022-07-18T02:04:20;16.70;99.90
18083;DHT22;9168;51.194;6.840;2022-07-18T02:07:07;16.60;99.90
18083;DHT22;9168;51.194;6.840;2022-07-18T02:09:34;16.60;99.90
18083;DHT22;9168;51.194;6.840;2022-07-18T02:12:02;16.60;99.90
18083;DHT22;9168;51.194;6.840;2022-07-18T02:14:29;16.60;99.90
18083;DHT22;9168;51.194;6.840;2022-07-18T02:16:56;16.50;99.90
18083;DHT22;9168;51.194;6.840;2022-07-18T02:19:23;16.50;99.90
18083;DHT22;9168;51.194;6.840;2022-07-18T02:21:50;16.50;99.90
18083;DHT22;9168;51.194;6.840;2022-07-18T02:24:16;16.40;99.90
18083;DHT22;9168;51.194;6.840;2022-07-18T02:26:43;16.40;99.90
18083;DHT22;9168;51.194;6.840;2022-07-18T02:29:12;16.40;99.90
18083;DHT22;9168;51.194;6.840;2022-07-18T02:31:38;16.40;99.90
18083;DHT22;9168;51.194;6.840;2022-07-18T02:34:05;16.40;99.90
18083;DHT22;9168;51.194;6.840;2022-07-18T02:36:35;16.40;99.90
18083;DHT22;9168;51.194;6.840;2022-07-18T02:39:02;16.30;99.90
18083;DHT22;9168;51.194;6.840;2022-07-18T02:41:29;16.30;99.90
18083;DHT22;9168;51.194;6.840;2022-07-18T02:43:57;16.40;99.90
18083;DHT22;9168;51.194;6.840;2022-07-18T02:46:25;16.30;99.90
18083;DHT22;9168;51.194;6.840;2022-07-18T02:48:52;16.30;99.90
18083;DHT22;9168;51.194;6.840;2022-07-18T02:51:22;16.20;99.90
18083;DHT22;9168;51.194;6.840;2022-07-18T02:53:49;16.20;99.90
18083;DHT22;9168;51.194;6.840;2022-07-18T02:56:15;16.20;99.90
18083;DHT22;9168;51.194;6.840;2022-07-18T02:58:42;16.10;99.90
18083;DHT22;9168;51.194;6.840;2022-07-18T03:01:09;16.10;99.90
18083;DHT22;9168;51.194;6.840;2022-07-18T03:03:38;16.10;99.90
18083;DHT22;9168;51.194;6.840;2022-07-18T03:06:05;16.10;99.90
18083;DHT22;9168;51.194;6.840;2022-07-18T03:08:32;16.10;99.90
18083;DHT22;9168;51.194;6.840;2022-07-18T03:10:58;16.00;99.90
18083;DHT22;9168;51.194;6.840;2022-07-18T03:13:25;16.00;99.90
18083;DHT22;9168;51.194;6.840;2022-07-18T03:15:54;16.00;99.90
18083;DHT22;9168;51.194;6.840;2022-07-18T03:18:20;16.00;99.90
18083;DHT22;9168;51.194;6.840;2022-07-18T03:20:51;15.90;99.90
18083;DHT22;9168;51.194;6.840;2022-07-18T03:23:18;15.90;99.90
18083;DHT22;9168;51.194;6.840;2022-07-18T03:25:45;15.90;99.90
18083;DHT22;9168;51.194;6.840;2022-07-18T03:28:12;15.90;99.90
18083;DHT22;9168;51.194;6.840;2022-07-18T03:30:39;15.90;99.90
18083;DHT22;9168;51.194;6.840;2022-07-18T03:33:06;15.80;99.90
18083;DHT22;9168;51.194;6.840;2022-07-18T03:35:33;15.80;99.90
18083;DHT22;9168;51.194;6.840;2022-07-18T03:38:01;15.70;99.90
18083;DHT22;9168;51.194;6.840;2022-07-18T03:40:28;15.70;99.90
18083;DHT22;9168;51.194;6.840;2022-07-18T03:42:55;15.70;99.90
18083;DHT22;9168;51.194;6.840;2022-07-18T03:45:22;15.70;99.90
18083;DHT22;9168;51.194;6.840;2022-07-18T03:47:48;15.70;99.90
18083;DHT22;9168;51.194;6.840;2022-07-18T03:50:15;15.70;99.90
18083;DHT22;9168;51.194;6.840;2022-07-18T03:52:42;15.70;99.90
18083;DHT22;9168;51.194;6.840;2022-07-18T03:55:11;15.70;99.90
18083;DHT22;9168;51.194;6.840;2022-07-18T03:57:39;15.70;99.90
18083;DHT22;9168;51.194;6.840;2022-07-18T04:00:08;15.70;99.90
18083;DHT22;9168;51.194;6.840;2022-07-18T04:02:38;15.70;99.90
18083;DHT22;9168;51.194;6.840;2022-07-18T04:05:05;15.60;99.90
18083;DHT22;9168;51.194;6.840;2022-07-18T04:07:33;15.70;99.90
18083;DHT22;9168;51.194;6.840;2022-07-18T04:10:00;15.70;99.90
18083;DHT22;9168;51.194;6.840;2022-07-18T04:12:28;15.70;99.90
18083;DHT22;9168;51.194;6.840;2022-07-18T04:14:55;15.70;99.90
18083;DHT22;9168;51.194;6.840;2022-07-18T04:17:22;15.70;99.90
18083;DHT22;9168;51.194;6.840;2022-07-18T04:19:50;15.70;99.90
18083;DHT22;9168;51.194;6.840;2022-07-18T04:22:16;15.70;99.90
18083;DHT22;9168;51.194;6.840;2022-07-18T04:24:43;15.70;99.90
18083;DHT22;9168;51.194;6.840;2022-07-18T04:27:10;15.70;99.90
18083;DHT22;9168;51.194;6.840;2022-07-18T04:29:38;15.70;99.90
18083;DHT22;9168;51.194;6.840;2022-07-18T04:32:06;15.80;99.90
18083;DHT22;9168;51.194;6.840;2022-07-18T04:34:32;15.80;99.90
18083;DHT22;9168;51.194;6.840;2022-07-18T04:36:59;15.80;99.90
18083;DHT22;9168;51.194;6.840;2022-07-18T04:39:26;15.80;99.90
18083;DHT22;9168;51.194;6.840;2022-07-18T04:41:53;15.80;99.90
18083;DHT22;9168;51.194;6.840;2022-07-18T04:44:20;15.90;99.90
18083;DHT22;9168;51.194;6.840;2022-07-18T04:46:49;16.00;99.90
18083;DHT22;9168;51.194;6.840;2022-07-18T04:49:15;16.00;99.90
18083;DHT22;9168;51.194;6.840;2022-07-18T04:51:42;16.00;99.90
18083;DHT22;9168;51.194;6.840;2022-07-18T04:54:09;16.10;99.90
18083;DHT22;9168;51.194;6.840;2022-07-18T04:56:37;16.20;99.90
18083;DHT22;9168;51.194;6.840;2022-07-18T04:59:04;16.20;99.90
18083;DHT22;9168;51.194;6.840;2022-07-18T05:01:31;16.30;99.90
18083;DHT22;9168;51.194;6.840;2022-07-18T05:04:01;16.40;99.90
18083;DHT22;9168;51.194;6.840;2022-07-18T05:06:29;16.60;99.90
18083;DHT22;9168;51.194;6.840;2022-07-18T05:08:56;16.70;99.90
18083;DHT22;9168;51.194;6.840;2022-07-18T05:11:22;16.80;99.90
18083;DHT22;9168;51.194;6.840;2022-07-18T05:13:49;16.90;99.90
18083;DHT22;9168;51.194;6.840;2022-07-18T05:16:16;17.00;99.90
18083;DHT22;9168;51.194;6.840;2022-07-18T05:18:43;17.20;99.90
18083;DHT22;9168;51.194;6.840;2022-07-18T05:21:11;17.20;99.90
18083;DHT22;9168;51.194;6.840;2022-07-18T05:23:38;17.40;99.90
18083;DHT22;9168;51.194;6.840;2022-07-18T05:26:05;17.40;99.90
18083;DHT22;9168;51.194;6.840;2022-07-18T05:28:32;17.40;99.90
18083;DHT22;9168;51.194;6.840;2022-07-18T05:30:59;17.50;99.90
18083;DHT22;9168;51.194;6.840;2022-07-18T05:33:26;17.60;99.90
18083;DHT22;9168;51.194;6.840;2022-07-18T05:35:53;17.60;99.90
18083;DHT22;9168;51.194;6.840;2022-07-18T05:38:21;17.70;99.90
18083;DHT22;9168;51.194;6.840;2022-07-18T05:40:48;17.90;99.90
18083;DHT22;9168;51.194;6.840;2022-07-18T05:43:15;18.00;99.90
18083;DHT22;9168;51.194;6.840;2022-07-18T05:45:42;18.20;99.90
18083;DHT22;9168;51.194;6.840;2022-07-18T05:48:09;18.30;99.90
18083;DHT22;9168;51.194;6.840;2022-07-18T05:50:36;18.40;99.90
18083;DHT22;9168;51.194;6.840;2022-07-18T05:53:03;18.50;99.90
18083;DHT22;9168;51.194;6.840;2022-07-18T05:55:31;18.70;99.90
18083;DHT22;9168;51.194;6.840;2022-07-18T05:57:58;18.80;99.90
18083;DHT22;9168;51.194;6.840;2022-07-18T06:00:25;18.90;99.90
18083;DHT22;9168;51.194;6.840;2022-07-18T06:02:52;19.00;99.90
18083;DHT22;9168;51.194;6.840;2022-07-18T06:05:19;19.00;99.90
18083;DHT22;9168;51.194;6.840;2022-07-18T06:07:46;19.10;99.90
18083;DHT22;9168;51.194;6.840;2022-07-18T06:10:14;19.20;99.90
18083;DHT22;9168;51.194;6.840;2022-07-18T06:12:42;19.40;99.90
18083;DHT22;9168;51.194;6.840;2022-07-18T06:15:10;19.40;99.90
18083;DHT22;9168;51.194;6.840;2022-07-18T06:17:37;19.50;99.90
18083;DHT22;9168;51.194;6.840;2022-07-18T06:20:06;19.70;99.90
18083;DHT22;9168;51.194;6.840;2022-07-18T06:22:34;19.70;99.90
18083;DHT22;9168;51.194;6.840;2022-07-18T06:25:02;19.90;99.90
18083;DHT22;9168;51.194;6.840;2022-07-18T06:27:29;20.00;99.90
18083;DHT22;9168;51.194;6.840;2022-07-18T06:29:57;20.00;99.90
18083;DHT22;9168;51.194;6.840;2022-07-18T06:32:24;20.10;99.90
18083;DHT22;9168;51.194;6.840;2022-07-18T06:34:51;20.20;99.90
18083;DHT22;9168;51.194;6.840;2022-07-18T06:37:18;20.40;99.90
18083;DHT22;9168;51.194;6.840;2022-07-18T06:39:45;20.40;99.90
18083;DHT22;9168;51.194;6.840;2022-07-18T06:42:12;20.50;99.90
18083;DHT22;9168;51.194;6.840;2022-07-18T06:44:39;20.70;99.90
18083;DHT22;9168;51.194;6.840;2022-07-18T06:47:07;20.80;99.20
18083;DHT22;9168;51.194;6.840;2022-07-18T06:49:34;20.90;98.90
18083;DHT22;9168;51.194;6.840;2022-07-18T06:52:01;20.90;99.10
18083;DHT22;9168;51.194;6.840;2022-07-18T06:54:27;21.00;98.60
18083;DHT22;9168;51.194;6.840;2022-07-18T06:56:55;21.10;98.70
18083;DHT22;9168;51.194;6.840;2022-07-18T06:59:24;21.20;98.10
18083;DHT22;9168;51.194;6.840;2022-07-18T07:01:51;21.30;97.50
18083;DHT22;9168;51.194;6.840;2022-07-18T07:04:19;21.40;97.00
18083;DHT22;9168;51.194;6.840;2022-07-18T07:06:46;21.50;96.80
18083;DHT22;9168;51.194;6.840;2022-07-18T07:09:13;21.60;96.80
18083;DHT22;9168;51.194;6.840;2022-07-18T07:11:39;21.60;96.10
18083;DHT22;9168;51.194;6.840;2022-07-18T07:14:06;21.70;96.20
18083;DHT22;9168;51.194;6.840;2022-07-18T07:16:36;21.70;96.30
18083;DHT22;9168;51.194;6.840;2022-07-18T07:19:03;21.80;96.10
18083;DHT22;9168;51.194;6.840;2022-07-18T07:21:31;21.90;95.80
18083;DHT22;9168;51.194;6.840;2022-07-18T07:23:58;21.90;95.70
18083;DHT22;9168;51.194;6.840;2022-07-18T07:26:25;21.90;95.70
18083;DHT22;9168;51.194;6.840;2022-07-18T07:28:52;22.00;95.90
18083;DHT22;9168;51.194;6.840;2022-07-18T07:31:19;22.10;96.00
18083;DHT22;9168;51.194;6.840;2022-07-18T07:33:46;22.10;96.00
18083;DHT22;9168;51.194;6.840;2022-07-18T07:36:13;22.10;96.10
18083;DHT22;9168;51.194;6.840;2022-07-18T07:38:41;22.10;95.90
18083;DHT22;9168;51.194;6.840;2022-07-18T07:41:08;22.20;95.70
18083;DHT22;9168;51.194;6.840;2022-07-18T07:43:35;22.30;95.70
18083;DHT22;9168;51.194;6.840;2022-07-18T07:46:04;22.40;95.80
18083;DHT22;9168;51.194;6.840;2022-07-18T07:48:30;22.50;95.30
18083;DHT22;9168;51.194;6.840;2022-07-18T07:50:57;22.60;95.50
18083;DHT22;9168;51.194;6.840;2022-07-18T07:53:24;22.60;95.90
18083;DHT22;9168;51.194;6.840;2022-07-18T07:55:52;22.70;95.50
18083;DHT22;9168;51.194;6.840;2022-07-18T07:58:19;22.70;95.20
18083;DHT22;9168;51.194;6.840;2022-07-18T08:00:46;22.70;95.40
18083;DHT22;9168;51.194;6.840;2022-07-18T08:03:13;22.80;95.20
18083;DHT22;9168;51.194;6.840;2022-07-18T08:05:45;22.90;94.80
18083;DHT22;9168;51.194;6.840;2022-07-18T08:08:13;23.00;95.20
18083;DHT22;9168;51.194;6.840;2022-07-18T08:10:40;23.10;94.70
18083;DHT22;9168;51.194;6.840;2022-07-18T08:13:09;23.10;94.40
18083;DHT22;9168;51.194;6.840;2022-07-18T08:15:36;23.30;94.30
18083;DHT22;9168;51.194;6.840;2022-07-18T08:18:03;23.30;94.00
18083;DHT22;9168;51.194;6.840;2022-07-18T08:20:31;23.30;94.80
18083;DHT22;9168;51.194;6.840;2022-07-18T08:23:02;23.40;94.20
18083;DHT22;9168;51.194;6.840;2022-07-18T08:25:31;23.40;94.70
18083;DHT22;9168;51.194;6.840;2022-07-18T08:27:59;23.40;94.40
18083;DHT22;9168;51.194;6.840;2022-07-18T08:30:28;23.50;94.00
18083;DHT22;9168;51.194;6.840;2022-07-18T08:32:55;23.60;93.50
18083;DHT22;9168;51.194;6.840;2022-07-18T08:35:24;23.70;93.80
18083;DHT22;9168;51.194;6.840;2022-07-18T08:37:51;23.80;93.00
18083;DHT22;9168;51.194;6.840;2022-07-18T08:40:18;23.90;92.90
18083;DHT22;9168;51.194;6.840;2022-07-18T08:42:45;24.00;92.80
18083;DHT22;9168;51.194;6.840;2022-07-18T08:45:12;24.10;92.50
18083;DHT22;9168;51.194;6.840;2022-07-18T08:47:40;24.10;92.20
18083;DHT22;9168;51.194;6.840;2022-07-18T08:50:07;24.20;92.50
18083;DHT22;9168;51.194;6.840;2022-07-18T08:52:36;24.20;93.00
18083;DHT22;9168;51.194;6.840;2022-07-18T08:55:05;24.40;91.70
18083;DHT22;9168;51.194;6.840;2022-07-18T08:57:33;24.50;91.80
18083;DHT22;9168;51.194;6.840;2022-07-18T09:00:02;24.60;92.10
18083;DHT22;9168;51.194;6.840;2022-07-18T09:02:29;24.70;91.50
18083;DHT22;9168;51.194;6.840;2022-07-18T09:05:00;24.80;91.70
18083;DHT22;9168;51.194;6.840;2022-07-18T09:07:28;24.90;91.30
18083;DHT22;9168;51.194;6.840;2022-07-18T09:09:57;24.90;91.60
18083;DHT22;9168;51.194;6.840;2022-07-18T09:12:25;25.00;91.20
18083;DHT22;9168;51.194;6.840;2022-07-18T09:14:57;25.10;91.20
18083;DHT22;9168;51.194;6.840;2022-07-18T09:17:26;25.10;91.20
18083;DHT22;9168;51.194;6.840;2022-07-18T09:20:00;25.20;90.80
18083;DHT22;9168;51.194;6.840;2022-07-18T09:22:30;25.20;91.00
18083;DHT22;9168;51.194;6.840;2022-07-18T09:25:03;25.20;91.30
18083;DHT22;9168;51.194;6.840;2022-07-18T09:27:33;25.20;90.90
18083;DHT22;9168;51.194;6.840;2022-07-18T09:32:51;25.40;91.50
18083;DHT22;9168;51.194;6.840;2022-07-18T09:35:22;25.40;90.00
18083;DHT22;9168;51.194;6.840;2022-07-18T09:37:58;25.60;90.20
18083;DHT22;9168;51.194;6.840;2022-07-18T09:40:27;25.60;90.40
18083;DHT22;9168;51.194;6.840;2022-07-18T09:42:56;25.60;90.20
18083;DHT22;9168;51.194;6.840;2022-07-18T09:45:29;25.70;90.60
18083;DHT22;9168;51.194;6.840;2022-07-18T09:47:58;25.70;89.90
18083;DHT22;9168;51.194;6.840;2022-07-18T09:50:32;25.90;89.50
18083;DHT22;9168;51.194;6.840;2022-07-18T09:53:15;26.10;89.70
18083;DHT22;9168;51.194;6.840;2022-07-18T09:55:44;26.20;89.10
18083;DHT22;9168;51.194;6.840;2022-07-18T09:58:15;26.30;87.50
18083;DHT22;9168;51.194;6.840;2022-07-18T10:00:42;26.30;88.70
18083;DHT22;9168;51.194;6.840;2022-07-18T10:03:09;26.30;89.20
18083;DHT22;9168;51.194;6.840;2022-07-18T10:05:38;26.40;89.10
18083;DHT22;9168;51.194;6.840;2022-07-18T10:08:08;26.50;86.90
18083;DHT22;9168;51.194;6.840;2022-07-18T10:10:36;26.60;86.60
18083;DHT22;9168;51.194;6.840;2022-07-18T10:13:05;26.60;87.00
18083;DHT22;9168;51.194;6.840;2022-07-18T10:15:33;26.80;86.70
18083;DHT22;9168;51.194;6.840;2022-07-18T10:18:02;27.00;88.50
18083;DHT22;9168;51.194;6.840;2022-07-18T10:20:34;27.30;86.00
18083;DHT22;9168;51.194;6.840;2022-07-18T10:23:08;27.60;83.70
18083;DHT22;9168;51.194;6.840;2022-07-18T10:25:36;27.80;82.80
18083;DHT22;9168;51.194;6.840;2022-07-18T10:28:06;28.10;80.90
18083;DHT22;9168;51.194;6.840;2022-07-18T10:30:36;28.40;78.40
18083;DHT22;9168;51.194;6.840;2022-07-18T10:33:41;28.70;76.50
18083;DHT22;9168;51.194;6.840;2022-07-18T10:36:11;29.20;75.80
18083;DHT22;9168;51.194;6.840;2022-07-18T10:39:04;29.60;74.60
18083;DHT22;9168;51.194;6.840;2022-07-18T10:41:32;30.00;76.20
18083;DHT22;9168;51.194;6.840;2022-07-18T10:43:59;30.30;73.90
18083;DHT22;9168;51.194;6.840;2022-07-18T10:47:03;30.70;75.00
18083;DHT22;9168;51.194;6.840;2022-07-18T10:50:01;31.10;72.30
18083;DHT22;9168;51.194;6.840;2022-07-18T10:52:56;31.60;73.20
18083;DHT22;9168;51.194;6.840;2022-07-18T10:55:32;32.20;72.90
18083;DHT22;9168;51.194;6.840;2022-07-18T10:58:16;32.60;72.60
18083;DHT22;9168;51.194;6.840;2022-07-18T11:00:47;33.00;73.60
18083;DHT22;9168;51.194;6.840;2022-07-18T11:03:16;33.20;69.00
18083;DHT22;9168;51.194;6.840;2022-07-18T11:05:47;33.50;69.00
18083;DHT22;9168;51.194;6.840;2022-07-18T11:08:20;33.80;67.70
18083;DHT22;9168;51.194;6.840;2022-07-18T11:11:06;34.00;67.20
18083;DHT22;9168;51.194;6.840;2022-07-18T11:13:34;34.10;65.60
18083;DHT22;9168;51.194;6.840;2022-07-18T11:16:03;34.20;67.10
18083;DHT22;9168;51.194;6.840;2022-07-18T11:18:33;34.20;67.20
18083;DHT22;9168;51.194;6.840;2022-07-18T11:21:21;34.20;65.00
18083;DHT22;9168;51.194;6.840;2022-07-18T11:23:51;34.20;64.60
18083;DHT22;9168;51.194;6.840;2022-07-18T11:26:21;34.20;64.90
18083;DHT22;9168;51.194;6.840;2022-07-18T11:28:49;34.20;64.70
18083;DHT22;9168;51.194;6.840;2022-07-18T11:31:22;34.30;67.40
18083;DHT22;9168;51.194;6.840;2022-07-18T11:33:49;34.50;65.70
18083;DHT22;9168;51.194;6.840;2022-07-18T11:36:18;34.30;62.60
18083;DHT22;9168;51.194;6.840;2022-07-18T11:38:47;34.40;64.80
18083;DHT22;9168;51.194;6.840;2022-07-18T11:41:15;34.50;64.50
18083;DHT22;9168;51.194;6.840;2022-07-18T11:43:45;34.30;61.40
18083;DHT22;9168;51.194;6.840;2022-07-18T11:46:13;34.20;62.00
18083;DHT22;9168;51.194;6.840;2022-07-18T11:48:42;34.20;61.50
18083;DHT22;9168;51.194;6.840;2022-07-18T11:51:10;34.30;63.60
18083;DHT22;9168;51.194;6.840;2022-07-18T11:53:42;34.50;64.10
18083;DHT22;9168;51.194;6.840;2022-07-18T11:56:09;34.70;66.00
18083;DHT22;9168;51.194;6.840;2022-07-18T11:58:37;34.90;62.60
18083;DHT22;9168;51.194;6.840;2022-07-18T12:01:06;35.10;60.80
18083;DHT22;9168;51.194;6.840;2022-07-18T12:03:34;35.30;62.80
18083;DHT22;9168;51.194;6.840;2022-07-18T12:06:10;35.50;61.90
18083;DHT22;9168;51.194;6.840;2022-07-18T12:08:39;35.20;60.30
18083;DHT22;9168;51.194;6.840;2022-07-18T12:11:13;34.80;60.10
18083;DHT22;9168;51.194;6.840;2022-07-18T12:13:46;34.60;62.60
18083;DHT22;9168;51.194;6.840;2022-07-18T12:16:28;34.30;60.90
18083;DHT22;9168;51.194;6.840;2022-07-18T12:18:57;33.90;63.30
18083;DHT22;9168;51.194;6.840;2022-07-18T12:21:37;33.70;64.60
18083;DHT22;9168;51.194;6.840;2022-07-18T12:24:22;33.40;64.20
18083;DHT22;9168;51.194;6.840;2022-07-18T12:27:13;33.00;63.40
18083;DHT22;9168;51.194;6.840;2022-07-18T12:30:02;32.80;63.40
18083;DHT22;9168;51.194;6.840;2022-07-18T12:32:39;33.00;66.00
18083;DHT22;9168;51.194;6.840;2022-07-18T12:35:08;33.50;67.80
18083;DHT22;9168;51.194;6.840;2022-07-18T12:37:36;33.90;65.90
18083;DHT22;9168;51.194;6.840;2022-07-18T12:40:05;33.80;62.80
18083;DHT22;9168;51.194;6.840;2022-07-18T12:42:34;33.90;62.70
18083;DHT22;9168;51.194;6.840;2022-07-18T12:45:01;34.40;64.20
18083;DHT22;9168;51.194;6.840;2022-07-18T12:47:30;34.90;64.70
18083;DHT22;9168;51.194;6.840;2022-07-18T12:49:57;35.30;63.20
18083;DHT22;9168;51.194;6.840;2022-07-18T12:52:24;35.20;60.30
18083;DHT22;9168;51.194;6.840;2022-07-18T12:54:52;35.60;61.30
18083;DHT22;9168;51.194;6.840;2022-07-18T12:57:20;36.00;62.00
18083;DHT22;9168;51.194;6.840;2022-07-18T12:59:47;36.20;59.00
18083;DHT22;9168;51.194;6.840;2022-07-18T13:02:15;36.30;57.70
18083;DHT22;9168;51.194;6.840;2022-07-18T13:04:43;36.40;59.50
18083;DHT22;9168;51.194;6.840;2022-07-18T13:07:11;36.60;59.30
18083;DHT22;9168;51.194;6.840;2022-07-18T13:09:38;36.70;59.70
18083;DHT22;9168;51.194;6.840;2022-07-18T13:12:05;36.80;58.40
18083;DHT22;9168;51.194;6.840;2022-07-18T13:14:32;36.80;57.60
18083;DHT22;9168;51.194;6.840;2022-07-18T13:16:59;36.90;58.90
18083;DHT22;9168;51.194;6.840;2022-07-18T13:19:26;36.80;57.60
18083;DHT22;9168;51.194;6.840;2022-07-18T13:21:57;36.70;57.60
18083;DHT22;9168;51.194;6.840;2022-07-18T13:24:25;36.70;57.50
18083;DHT22;9168;51.194;6.840;2022-07-18T13:26:52;36.60;57.10
18083;DHT22;9168;51.194;6.840;2022-07-18T13:29:19;36.30;56.40
18083;DHT22;9168;51.194;6.840;2022-07-18T13:31:45;36.30;57.40
18083;DHT22;9168;51.194;6.840;2022-07-18T13:34:13;36.40;58.90
18083;DHT22;9168;51.194;6.840;2022-07-18T13:36:40;36.50;58.40
18083;DHT22;9168;51.194;6.840;2022-07-18T13:39:08;36.60;58.60
18083;DHT22;9168;51.194;6.840;2022-07-18T13:41:35;36.70;57.70
18083;DHT22;9168;51.194;6.840;2022-07-18T13:44:03;36.80;59.50
18083;DHT22;9168;51.194;6.840;2022-07-18T13:46:30;36.90;58.60
18083;DHT22;9168;51.194;6.840;2022-07-18T13:48:57;36.80;56.70
18083;DHT22;9168;51.194;6.840;2022-07-18T13:51:24;36.90;57.40
18083;DHT22;9168;51.194;6.840;2022-07-18T13:53:51;36.70;56.40
18083;DHT22;9168;51.194;6.840;2022-07-18T13:56:19;36.80;57.40
18083;DHT22;9168;51.194;6.840;2022-07-18T13:58:46;36.90;58.80
18083;DHT22;9168;51.194;6.840;2022-07-18T14:01:13;36.90;56.60
18083;DHT22;9168;51.194;6.840;2022-07-18T14:03:40;36.90;55.80
18083;DHT22;9168;51.194;6.840;2022-07-18T14:06:07;36.70;55.50
18083;DHT22;9168;51.194;6.840;2022-07-18T14:08:34;36.50;55.50
18083;DHT22;9168;51.194;6.840;2022-07-18T14:11:02;36.30;55.50
18083;DHT22;9168;51.194;6.840;2022-07-18T14:13:31;36.30;56.70
18083;DHT22;9168;51.194;6.840;2022-07-18T14:15:58;36.30;59.00
18083;DHT22;9168;51.194;6.840;2022-07-18T14:18:24;36.30;58.50
18083;DHT22;9168;51.194;6.840;2022-07-18T14:20:51;36.20;60.00
18083;DHT22;9168;51.194;6.840;2022-07-18T14:23:18;36.20;59.50
18083;DHT22;9168;51.194;6.840;2022-07-18T14:25:45;36.30;57.60
18083;DHT22;9168;51.194;6.840;2022-07-18T14:28:12;36.30;56.60
18083;DHT22;9168;51.194;6.840;2022-07-18T14:30:41;36.20;56.90
18083;DHT22;9168;51.194;6.840;2022-07-18T14:33:07;36.20;56.10
18083;DHT22;9168;51.194;6.840;2022-07-18T14:35:34;36.10;56.60
18083;DHT22;9168;51.194;6.840;2022-07-18T14:38:01;36.10;56.60
18083;DHT22;9168;51.194;6.840;2022-07-18T14:40:28;36.00;56.30
18083;DHT22;9168;51.194;6.840;2022-07-18T14:42:55;36.00;56.70
18083;DHT22;9168;51.194;6.840;2022-07-18T14:45:22;36.00;57.20
18083;DHT22;9168;51.194;6.840;2022-07-18T14:47:50;36.00;56.80
18083;DHT22;9168;51.194;6.840;2022-07-18T14:50:17;36.00;58.90
18083;DHT22;9168;51.194;6.840;2022-07-18T14:52:44;36.00;57.00
18083;DHT22;9168;51.194;6.840;2022-07-18T14:55:11;36.00;57.70
18083;DHT22;9168;51.194;6.840;2022-07-18T14:57:38;36.00;57.90
18083;DHT22;9168;51.194;6.840;2022-07-18T15:00:07;35.90;58.70
18083;DHT22;9168;51.194;6.840;2022-07-18T15:02:35;35.90;58.20
18083;DHT22;9168;51.194;6.840;2022-07-18T15:05:03;35.80;57.80
18083;DHT22;9168;51.194;6.840;2022-07-18T15:07:31;35.70;57.30
18083;DHT22;9168;51.194;6.840;2022-07-18T15:09:59;35.60;59.00
18083;DHT22;9168;51.194;6.840;2022-07-18T15:12:26;35.50;58.60
18083;DHT22;9168;51.194;6.840;2022-07-18T15:14:53;35.50;57.70
18083;DHT22;9168;51.194;6.840;2022-07-18T15:17:22;35.40;57.70
18083;DHT22;9168;51.194;6.840;2022-07-18T15:19:49;35.20;57.60
18083;DHT22;9168;51.194;6.840;2022-07-18T15:22:17;35.10;56.90
18083;DHT22;9168;51.194;6.840;2022-07-18T15:24:44;35.00;57.80
18083;DHT22;9168;51.194;6.840;2022-07-18T15:27:11;34.90;56.20
18083;DHT22;9168;51.194;6.840;2022-07-18T15:29:38;34.70;57.60
18083;DHT22;9168;51.194;6.840;2022-07-18T15:32:06;34.60;58.10
18083;DHT22;9168;51.194;6.840;2022-07-18T15:34:34;34.50;57.70
18083;DHT22;9168;51.194;6.840;2022-07-18T15:37:01;34.40;58.70
18083;DHT22;9168;51.194;6.840;2022-07-18T15:39:29;34.20;58.10
18083;DHT22;9168;51.194;6.840;2022-07-18T15:41:57;34.10;57.20
18083;DHT22;9168;51.194;6.840;2022-07-18T15:44:24;34.00;58.90
18083;DHT22;9168;51.194;6.840;2022-07-18T15:46:52;33.90;59.00
18083;DHT22;9168;51.194;6.840;2022-07-18T15:49:19;33.80;58.80
18083;DHT22;9168;51.194;6.840;2022-07-18T15:51:46;33.70;58.70
18083;DHT22;9168;51.194;6.840;2022-07-18T15:54:14;33.60;59.60
18083;DHT22;9168;51.194;6.840;2022-07-18T15:56:42;33.50;59.60